Terminal Aerodrome Forecast
Issued by NWS Wilmington, OH

Current Version | Previous Version | Graphics & Text | Print | Product List | Glossary On
Versions: 1 2 3 4 5 6 7 8 9 10 11 12 13 14 15 16 17 18 19 20 21 22 23 24 25 26 27 28 29 30
000
FTUS41 KILN 260200 AAA
TAFCVG
TAF AMD
KCVG 260222Z 2602/2706 18008KT P6SM BKN035 OVC060
     FM261300 20011KT P6SM SCT035 BKN200
     FM261800 21013G20KT P6SM VCTS BKN035CB BKN110
     FM270300 21010KT P6SM VCSH OVC035=

USA.gov is the U.S. government's official web portal to all federal, state and local government web resources and services.